createdAt,value
2023-04-20T00:01:55.344Z,11.27
2023-04-20T00:04:25.265Z,10.88
2023-04-20T00:06:54.162Z,11.14
2023-04-20T00:09:22.708Z,11.18
2023-04-20T00:11:51.275Z,12.37
2023-04-20T00:14:20.098Z,13.30
2023-04-20T00:16:49.584Z,13.48
2023-04-20T00:19:18.482Z,13.02
2023-04-20T00:21:48.893Z,13.56
2023-04-20T00:24:17.433Z,13.83
2023-04-20T00:26:46.125Z,13.59
2023-04-20T00:29:14.628Z,13.85
2023-04-20T00:31:43.376Z,13.06
2023-04-20T00:34:11.889Z,13.68
2023-04-20T00:36:40.469Z,12.46
2023-04-20T00:39:10.549Z,12.71
2023-04-20T00:41:39.538Z,13.19
2023-04-20T00:44:11.518Z,13.12
2023-04-20T00:46:40.129Z,12.94
2023-04-20T00:49:09.174Z,12.81
2023-04-20T00:51:38.151Z,13.26
2023-04-20T00:54:07.074Z,12.82
2023-04-20T00:56:37.030Z,12.87
2023-04-20T00:59:05.914Z,12.19
2023-04-20T01:01:35.067Z,13.28
2023-04-20T01:04:03.801Z,13.05
2023-04-20T01:06:32.697Z,13.61
2023-04-20T01:09:01.620Z,13.79
2023-04-20T01:11:30.241Z,14.14
2023-04-20T01:14:00.171Z,13.45
2023-04-20T01:16:28.804Z,13.54
2023-04-20T01:18:57.419Z,13.82
2023-04-20T01:21:26.029Z,13.98
2023-04-20T01:23:55.913Z,13.94
2023-04-20T01:26:25.978Z,13.51
2023-04-20T01:28:54.668Z,13.31
2023-04-20T01:31:23.368Z,12.71
2023-04-20T01:33:52.417Z,12.83
2023-04-20T01:36:21.443Z,12.72
2023-04-20T01:38:50.168Z,12.81
2023-04-20T01:41:20.229Z,13.00
2023-04-20T01:43:48.790Z,13.21
2023-04-20T01:46:17.455Z,12.15
2023-04-20T01:48:46.012Z,13.33
2023-04-20T01:51:14.632Z,13.67
2023-04-20T01:53:43.166Z,12.64
2023-04-20T01:56:11.728Z,13.28
2023-04-20T01:58:41.607Z,13.40
2023-04-20T02:01:10.663Z,13.57
2023-04-20T02:03:39.382Z,13.48
2023-04-20T02:06:08.442Z,13.54
2023-04-20T02:08:37.086Z,13.51
2023-04-20T02:11:06.534Z,13.72
2023-04-20T02:13:35.226Z,12.62
2023-04-20T02:16:05.419Z,13.53
2023-04-20T02:18:33.983Z,13.88
2023-04-20T02:21:03.457Z,13.11
2023-04-20T02:23:31.994Z,13.07
2023-04-20T02:26:00.737Z,13.70
2023-04-20T02:28:29.336Z,12.44
2023-04-20T02:30:57.855Z,11.85
2023-04-20T02:33:27.816Z,12.24
2023-04-20T02:35:56.378Z,11.95
2023-04-20T02:38:24.950Z,12.90
2023-04-20T02:40:53.491Z,11.88
2023-04-20T02:43:22.280Z,11.82
2023-04-20T02:45:50.752Z,12.76
2023-04-20T02:48:19.299Z,11.29
2023-04-20T02:50:49.159Z,12.79
2023-04-20T02:53:17.734Z,11.76
2023-04-20T02:55:46.285Z,11.44
2023-04-20T02:58:15.358Z,12.60
2023-04-20T03:00:43.856Z,13.15
2023-04-20T03:03:12.493Z,13.03
2023-04-20T03:05:41.454Z,13.46
2023-04-20T03:08:11.360Z,12.29
2023-04-20T03:10:39.962Z,12.33
2023-04-20T03:13:08.517Z,13.19
2023-04-20T03:15:37.007Z,12.74
2023-04-20T03:18:05.777Z,12.39
2023-04-20T03:20:34.329Z,12.79
2023-04-20T03:23:02.901Z,12.66
2023-04-20T03:25:32.886Z,12.37
2023-04-20T03:28:01.629Z,12.73
2023-04-20T03:30:30.505Z,12.79
2023-04-20T03:32:59.089Z,13.13
2023-04-20T03:35:27.586Z,12.80
2023-04-20T03:37:56.231Z,12.65
2023-04-20T03:40:25.028Z,13.27
2023-04-20T03:42:54.897Z,13.21
2023-04-20T03:45:23.722Z,13.01
2023-04-20T03:47:52.272Z,12.52
2023-04-20T03:50:20.831Z,12.70
2023-04-20T03:52:49.325Z,12.12
2023-04-20T03:55:17.882Z,12.14
2023-04-20T03:57:46.496Z,11.91
2023-04-20T04:00:17.427Z,11.99
2023-04-20T04:02:46.123Z,11.30
2023-04-20T04:05:15.119Z,11.08
2023-04-20T04:07:43.852Z,12.45
2023-04-20T04:10:13.194Z,11.53
2023-04-20T04:12:41.707Z,11.31
2023-04-20T04:15:12.102Z,11.49
2023-04-20T04:17:42.014Z,10.86
2023-04-20T04:20:12.084Z,11.40
2023-04-20T04:22:41.387Z,12.08
2023-04-20T04:25:11.447Z,12.66
2023-04-20T04:27:40.780Z,12.55
2023-04-20T04:30:11.221Z,12.55
2023-04-20T04:32:41.163Z,12.47
2023-04-20T04:35:11.358Z,13.07
2023-04-20T04:37:39.871Z,11.94
2023-04-20T04:40:09.992Z,12.61
2023-04-20T04:42:38.782Z,12.63
2023-04-20T04:45:10.443Z,12.65
2023-04-20T04:47:41.202Z,13.01
2023-04-20T04:50:12.997Z,13.34
2023-04-20T04:52:41.607Z,13.07
2023-04-20T04:55:10.815Z,13.01
2023-04-20T04:57:39.393Z,12.71
2023-04-20T05:00:12.036Z,12.39
2023-04-20T05:02:41.025Z,12.43
2023-04-20T05:05:11.713Z,11.85
2023-04-20T05:07:40.337Z,10.83
2023-04-20T05:10:09.904Z,10.85
2023-04-20T05:12:39.169Z,11.60
2023-04-20T05:15:08.707Z,10.27
2023-04-20T05:17:37.207Z,10.94
2023-04-20T05:20:07.874Z,11.39
2023-04-20T05:22:37.750Z,10.83
2023-04-20T05:25:06.859Z,10.48
2023-04-20T05:27:35.503Z,9.56
2023-04-20T05:30:18.957Z,8.93
2023-04-20T05:32:51.525Z,10.05
2023-04-20T05:35:21.463Z,10.15
2023-04-20T05:37:51.716Z,10.21
2023-04-20T05:40:20.293Z,9.63
2023-04-20T05:42:48.862Z,9.56
2023-04-20T05:45:17.445Z,10.12
2023-04-20T05:47:54.842Z,10.94
2023-04-20T05:50:24.665Z,9.95
2023-04-20T05:52:55.013Z,9.44
2023-04-20T05:55:23.838Z,9.06
2023-04-20T05:57:53.183Z,10.06
2023-04-20T06:00:25.895Z,10.69
2023-04-20T06:02:55.589Z,11.76
2023-04-20T06:05:24.456Z,12.76
2023-04-20T06:07:54.473Z,12.31
2023-04-20T06:10:23.232Z,12.64
2023-04-20T06:12:51.762Z,10.47
2023-04-20T06:15:20.333Z,10.81
2023-04-20T06:17:50.697Z,10.12
2023-04-20T06:20:20.380Z,8.87
2023-04-20T06:22:49.241Z,9.42
2023-04-20T06:25:19.156Z,9.17
2023-04-20T06:27:48.425Z,9.19
2023-04-20T06:30:17.897Z,9.07
2023-04-20T06:32:46.422Z,9.49
2023-04-20T06:35:15.067Z,9.00
2023-04-20T06:37:43.560Z,8.72
2023-04-20T06:40:13.729Z,9.13
2023-04-20T06:42:45.621Z,9.87
2023-04-20T06:45:14.170Z,10.14
2023-04-20T06:47:42.748Z,9.71
2023-04-20T06:50:11.827Z,8.87
2023-04-20T06:52:41.644Z,9.27
2023-04-20T06:55:10.954Z,9.74
2023-04-20T06:57:39.628Z,9.33
2023-04-20T07:00:11.883Z,9.05
2023-04-20T07:02:48.450Z,9.36
2023-04-20T07:05:17.788Z,9.14
2023-04-20T07:07:47.041Z,9.66
2023-04-20T07:10:16.927Z,9.80
2023-04-20T07:12:45.685Z,8.35
2023-04-20T07:15:15.770Z,9.21
2023-04-20T07:17:44.314Z,8.53
2023-04-20T07:20:13.158Z,9.39
2023-04-20T07:22:41.729Z,9.10
2023-04-20T07:25:11.286Z,8.29
2023-04-20T07:27:41.262Z,9.36
2023-04-20T07:30:11.465Z,9.27
2023-04-20T07:32:42.486Z,9.40
2023-04-20T07:35:11.824Z,10.30
2023-04-20T07:37:40.723Z,9.72
2023-04-20T07:40:10.700Z,10.48
2023-04-20T07:42:39.266Z,9.95
2023-04-20T07:45:08.950Z,9.24
2023-04-20T07:47:38.403Z,10.73
2023-04-20T07:50:09.487Z,9.50
2023-04-20T07:52:38.086Z,10.54
2023-04-20T07:55:08.280Z,10.53
2023-04-20T07:57:37.283Z,10.52
2023-04-20T08:00:07.478Z,9.76
2023-04-20T08:02:36.105Z,8.76
2023-04-20T08:05:05.299Z,9.06
2023-04-20T08:07:35.518Z,9.01
2023-04-20T08:10:04.074Z,9.27
2023-04-20T08:12:32.616Z,9.18
2023-04-20T08:15:04.318Z,9.37
2023-04-20T08:20:02.506Z,10.23
2023-04-20T08:22:31.173Z,9.44
2023-04-20T08:25:01.240Z,10.09
2023-04-20T08:27:30.675Z,10.69
2023-04-20T08:29:59.281Z,11.48
2023-04-20T08:32:27.842Z,10.11
2023-04-20T08:34:57.215Z,9.78
2023-04-20T08:37:26.884Z,10.89
2023-04-20T08:39:55.381Z,10.69
2023-04-20T08:42:25.507Z,9.87
2023-04-20T08:44:54.645Z,10.65
2023-04-20T08:47:23.451Z,10.80
2023-04-20T08:49:54.512Z,10.15
2023-04-20T08:52:23.178Z,9.59
2023-04-20T08:54:56.600Z,10.13
2023-04-20T08:57:27.940Z,10.44
2023-04-20T08:59:57.301Z,9.99
2023-04-20T09:02:26.105Z,10.47
2023-04-20T09:05:04.940Z,10.45
2023-04-20T09:07:33.748Z,9.33
2023-04-20T09:10:02.696Z,9.34
2023-04-20T09:12:42.742Z,9.93
2023-04-20T09:15:12.090Z,9.21
2023-04-20T09:17:41.568Z,9.84
2023-04-20T09:20:11.475Z,10.11
2023-04-20T09:22:43.347Z,9.79
2023-04-20T09:25:19.222Z,9.59
2023-04-20T09:27:58.552Z,10.44
2023-04-20T09:30:37.698Z,9.97
2023-04-20T09:33:08.141Z,9.62
2023-04-20T09:35:38.126Z,9.50
2023-04-20T09:38:06.661Z,9.88
2023-04-20T09:40:36.284Z,10.11
2023-04-20T09:43:15.173Z,10.15
2023-04-20T09:45:44.715Z,10.96
2023-04-20T09:48:15.466Z,10.47
2023-04-20T09:50:49.762Z,10.91
2023-04-20T09:53:20.153Z,11.88
2023-04-20T09:55:49.832Z,11.25
2023-04-20T09:58:21.133Z,10.50
2023-04-20T10:00:50.260Z,9.83
2023-04-20T10:03:19.706Z,10.17
2023-04-20T10:05:48.678Z,10.18
2023-04-20T10:08:17.423Z,10.07
2023-04-20T10:10:47.497Z,9.74
2023-04-20T10:13:17.018Z,10.67
2023-04-20T10:15:47.031Z,9.97
2023-04-20T10:18:20.888Z,10.64
2023-04-20T10:20:49.953Z,11.03
2023-04-20T10:23:20.012Z,10.34
2023-04-20T10:25:59.240Z,10.66
2023-04-20T10:28:39.600Z,11.59
2023-04-20T10:31:13.059Z,11.87
2023-04-20T10:33:51.423Z,11.59
2023-04-20T10:36:28.416Z,11.69
2023-04-20T10:38:57.157Z,10.91
2023-04-20T10:41:26.025Z,10.97
2023-04-20T10:43:54.749Z,11.01
2023-04-20T10:46:26.264Z,10.25
2023-04-20T10:48:56.287Z,10.99
2023-04-20T10:51:25.940Z,10.27
2023-04-20T10:54:01.860Z,10.40
2023-04-20T10:56:37.353Z,10.88
2023-04-20T10:59:08.939Z,10.71
2023-04-20T11:01:39.302Z,10.97
2023-04-20T11:04:08.057Z,10.85
2023-04-20T11:06:37.617Z,11.86
2023-04-20T11:09:16.985Z,11.88
2023-04-20T11:11:45.817Z,12.45
2023-04-20T11:14:14.726Z,13.39
2023-04-20T11:16:53.884Z,11.75
2023-04-20T11:19:28.412Z,11.27
2023-04-20T11:21:57.518Z,10.80
2023-04-20T11:24:28.425Z,10.52
2023-04-20T11:26:58.123Z,11.00
2023-04-20T11:29:31.959Z,11.13
2023-04-20T11:32:04.052Z,11.48
2023-04-20T11:34:35.175Z,10.42
2023-04-20T11:37:06.520Z,10.34
2023-04-20T11:39:35.634Z,10.38
2023-04-20T11:42:04.371Z,10.32
2023-04-20T11:44:33.049Z,11.66
2023-04-20T11:47:03.843Z,10.67
2023-04-20T11:49:32.659Z,10.94
2023-04-20T11:52:01.245Z,11.19
2023-04-20T11:54:32.346Z,11.85
2023-04-20T11:57:00.859Z,11.63
2023-04-20T11:59:29.386Z,11.24
2023-04-20T12:01:57.945Z,12.12
2023-04-20T12:04:28.448Z,12.41
2023-04-20T12:06:58.606Z,12.86
2023-04-20T12:09:27.320Z,12.72
2023-04-20T12:11:56.194Z,11.74
2023-04-20T12:14:24.754Z,11.11
2023-04-20T12:16:53.303Z,11.80
2023-04-20T12:19:21.877Z,12.26
2023-04-20T12:21:51.813Z,11.86
2023-04-20T12:24:20.411Z,11.47
2023-04-20T12:26:49.003Z,11.87
2023-04-20T12:29:17.714Z,12.69
2023-04-20T12:31:46.403Z,12.66
2023-04-20T12:34:14.958Z,12.30
2023-04-20T12:36:43.484Z,12.16
2023-04-20T12:39:13.380Z,12.71
2023-04-20T12:41:43.248Z,12.71
2023-04-20T12:44:20.710Z,12.10
2023-04-20T12:46:49.464Z,12.10
2023-04-20T12:49:18.359Z,13.09
2023-04-20T12:51:47.128Z,13.41
2023-04-20T12:54:15.893Z,12.81
2023-04-20T12:56:44.565Z,12.73
2023-04-20T12:59:13.094Z,12.37
2023-04-20T13:01:42.969Z,13.53
2023-04-20T13:04:11.795Z,13.08
2023-04-20T13:06:40.548Z,12.94
2023-04-20T13:09:09.238Z,12.32
2023-04-20T13:11:37.809Z,11.79
2023-04-20T13:14:06.356Z,11.08
2023-04-20T13:16:34.984Z,12.26
2023-04-20T13:19:05.381Z,12.07
2023-04-20T13:21:34.255Z,12.14
2023-04-20T13:24:02.830Z,12.45
2023-04-20T13:26:31.475Z,12.21
2023-04-20T13:29:00.005Z,12.23
2023-04-20T13:31:28.637Z,12.27
2023-04-20T13:33:57.181Z,12.14
2023-04-20T13:36:28.372Z,12.66
2023-04-20T13:38:57.730Z,12.01
2023-04-20T13:41:26.463Z,11.36
2023-04-20T13:43:54.995Z,11.71
2023-04-20T13:46:23.597Z,11.52
2023-04-20T13:48:52.153Z,12.19
2023-04-20T13:51:20.692Z,12.53
2023-04-20T13:53:50.622Z,12.11
2023-04-20T13:56:19.495Z,11.89
2023-04-20T13:58:48.052Z,12.52
2023-04-20T14:01:17.537Z,13.05
2023-04-20T14:03:46.384Z,13.08
2023-04-20T14:06:14.992Z,12.76
2023-04-20T14:08:43.515Z,13.05
2023-04-20T14:11:13.497Z,12.19
2023-04-20T14:13:42.270Z,12.84
2023-04-20T14:16:11.394Z,12.85
2023-04-20T14:18:40.129Z,11.87
2023-04-20T14:21:08.666Z,11.87
2023-04-20T14:23:37.510Z,12.52
2023-04-20T14:26:06.120Z,12.83
2023-04-20T14:28:36.089Z,13.26
2023-04-20T14:31:04.764Z,13.23
2023-04-20T14:33:33.349Z,12.89
2023-04-20T14:36:01.914Z,12.63
2023-04-20T14:38:30.444Z,12.51
2023-04-20T14:40:59.954Z,12.31
2023-04-20T14:43:28.455Z,12.68
2023-04-20T14:45:58.914Z,12.70
2023-04-20T14:48:27.752Z,12.43
2023-04-20T14:50:57.090Z,12.65
2023-04-20T14:53:25.822Z,13.38
2023-04-20T14:55:54.353Z,13.16
2023-04-20T14:58:22.965Z,12.80
2023-04-20T15:00:54.045Z,13.22
2023-04-20T15:03:24.202Z,12.41
2023-04-20T15:05:52.920Z,12.52
2023-04-20T15:08:21.484Z,12.72
2023-04-20T15:10:51.974Z,12.71
2023-04-20T15:13:20.467Z,12.47
2023-04-20T15:15:50.419Z,12.68
2023-04-20T15:18:20.243Z,12.87
2023-04-20T15:20:51.630Z,13.57
2023-04-20T15:23:20.322Z,13.67
2023-04-20T15:25:48.917Z,12.67
2023-04-20T15:28:17.696Z,12.39
2023-04-20T15:30:46.694Z,12.72
2023-04-20T15:33:15.336Z,12.19
2023-04-20T15:35:44.003Z,12.72
2023-04-20T15:38:13.901Z,12.29
2023-04-20T15:40:42.419Z,12.02
2023-04-20T15:43:10.934Z,12.30
2023-04-20T15:45:39.495Z,12.12
2023-04-20T15:48:08.972Z,12.41
2023-04-20T15:50:37.641Z,12.87
2023-04-20T15:53:07.412Z,13.09
2023-04-20T15:55:39.756Z,12.72
2023-04-20T15:58:08.299Z,13.12
2023-04-20T16:00:37.126Z,12.88
2023-04-20T16:03:05.917Z,13.01
2023-04-20T16:05:34.774Z,12.37
2023-04-20T16:08:03.382Z,13.00
2023-04-20T16:10:32.016Z,12.83
2023-04-20T16:13:03.524Z,12.81
2023-04-20T16:15:32.493Z,12.68
2023-04-20T16:18:04.291Z,12.62
2023-04-20T16:20:33.051Z,12.44
2023-04-20T16:23:01.562Z,12.53
2023-04-20T16:25:32.455Z,12.55
2023-04-20T16:28:02.574Z,12.36
2023-04-20T16:30:31.245Z,12.43
2023-04-20T16:33:00.708Z,12.51
2023-04-20T16:35:29.338Z,12.31
2023-04-20T16:37:57.867Z,12.67
2023-04-20T16:40:26.704Z,12.11
2023-04-20T16:42:55.361Z,12.55
2023-04-20T16:45:25.331Z,12.42
2023-04-20T16:47:53.943Z,12.74
2023-04-20T16:50:22.511Z,12.42
2023-04-20T16:52:51.465Z,11.91
2023-04-20T16:55:20.260Z,12.43
2023-04-20T16:57:48.770Z,12.25
2023-04-20T17:00:18.546Z,12.76
2023-04-20T17:02:48.591Z,12.51
2023-04-20T17:05:17.149Z,12.55
2023-04-20T17:07:47.185Z,12.32
2023-04-20T17:10:16.152Z,12.34
2023-04-20T17:12:44.833Z,11.97
2023-04-20T17:15:13.593Z,12.29
2023-04-20T17:17:42.236Z,12.42
2023-04-20T17:20:13.052Z,12.06
2023-04-20T17:22:41.603Z,12.15
2023-04-20T17:25:11.048Z,12.14
2023-04-20T17:27:39.683Z,11.89
2023-04-20T17:30:09.454Z,12.23
2023-04-20T17:32:38.003Z,11.84
2023-04-20T17:35:07.338Z,12.64
2023-04-20T17:37:37.514Z,11.92
2023-04-20T17:40:07.697Z,11.22
2023-04-20T17:42:36.274Z,11.68
2023-04-20T17:45:06.109Z,11.83
2023-04-20T17:47:34.663Z,11.56
2023-04-20T17:50:04.598Z,11.38
2023-04-20T17:52:33.237Z,11.43
2023-04-20T17:55:03.136Z,11.66
2023-04-20T17:57:31.696Z,11.63
2023-04-20T18:00:00.258Z,10.97
2023-04-20T18:02:28.940Z,10.70
2023-04-20T18:04:59.770Z,11.13
2023-04-20T18:07:28.865Z,10.47
2023-04-20T18:09:57.382Z,11.30
2023-04-20T18:12:27.310Z,11.60
2023-04-20T18:14:55.872Z,11.91
2023-04-20T18:17:24.471Z,11.24
2023-04-20T18:19:52.979Z,10.55
2023-04-20T18:22:21.597Z,10.56
2023-04-20T18:24:50.171Z,10.82
2023-04-20T18:27:18.760Z,10.72
2023-04-20T18:29:49.552Z,11.20
2023-04-20T18:32:18.142Z,11.73
2023-04-20T18:34:46.699Z,10.68
2023-04-20T18:37:15.661Z,11.39
2023-04-20T18:39:44.184Z,10.93
2023-04-20T18:42:12.720Z,11.56
2023-04-20T18:44:41.578Z,11.13
2023-04-20T18:47:11.533Z,10.82
2023-04-20T18:49:40.029Z,10.37
2023-04-20T18:52:08.648Z,10.91
2023-04-20T18:54:38.387Z,11.03
2023-04-20T18:57:07.597Z,10.63
2023-04-20T18:59:36.244Z,11.07
2023-04-20T19:02:05.014Z,11.94
2023-04-20T19:04:36.269Z,12.37
2023-04-20T19:07:04.863Z,12.29
2023-04-20T19:09:33.425Z,12.19
2023-04-20T19:12:02.592Z,11.89
2023-04-20T19:14:31.138Z,12.23
2023-04-20T19:17:02.043Z,12.60
2023-04-20T19:19:30.649Z,12.79
2023-04-20T19:22:00.688Z,11.47
2023-04-20T19:24:29.295Z,11.40
2023-04-20T19:26:57.862Z,11.06
2023-04-20T19:29:26.454Z,11.55
2023-04-20T19:31:55.093Z,12.52
2023-04-20T19:34:23.757Z,12.16
2023-04-20T19:36:52.416Z,11.71
2023-04-20T19:39:22.368Z,12.50
2023-04-20T19:41:50.870Z,12.46
2023-04-20T19:44:19.756Z,12.69
2023-04-20T19:46:49.913Z,12.70
2023-04-20T19:49:18.904Z,13.40
2023-04-20T19:51:47.555Z,12.92
2023-04-20T19:54:17.562Z,12.45
2023-04-20T19:56:47.673Z,12.91
2023-04-20T19:59:16.318Z,12.71
2023-04-20T20:01:45.066Z,11.24
2023-04-20T20:04:14.019Z,12.25
2023-04-20T20:06:43.951Z,12.38
2023-04-20T20:09:13.102Z,11.91
2023-04-20T20:11:48.000Z,12.19
2023-04-20T20:14:17.933Z,12.44
2023-04-20T20:16:46.698Z,12.54
2023-04-20T20:19:16.053Z,12.05
2023-04-20T20:21:45.345Z,12.67
2023-04-20T20:24:13.894Z,13.02
2023-04-20T20:26:42.463Z,12.14
2023-04-20T20:29:11.203Z,11.48
2023-04-20T20:31:41.177Z,11.77
2023-04-20T20:34:09.759Z,11.26
2023-04-20T20:36:38.265Z,10.73
2023-04-20T20:39:06.873Z,10.70
2023-04-20T20:41:35.454Z,9.80
2023-04-20T20:44:04.099Z,9.50
2023-04-20T20:46:32.681Z,10.50
2023-04-20T20:49:02.594Z,11.85
2023-04-20T20:51:31.450Z,10.09
2023-04-20T20:54:00.038Z,10.48
2023-04-20T20:56:28.559Z,10.10
2023-04-20T20:58:57.257Z,10.89
2023-04-20T21:01:25.925Z,11.44
2023-04-20T21:03:54.630Z,10.77
2023-04-20T21:06:24.726Z,11.99
2023-04-20T21:08:53.277Z,11.05
2023-04-20T21:11:21.876Z,11.08
2023-04-20T21:13:50.431Z,11.76
2023-04-20T21:16:19.010Z,11.55
2023-04-20T21:18:47.558Z,10.85
2023-04-20T21:21:16.562Z,10.07
2023-04-20T21:23:46.467Z,11.68
2023-04-20T21:26:14.995Z,11.52
2023-04-20T21:28:43.723Z,11.49
2023-04-20T21:31:12.308Z,11.22
2023-04-20T21:33:40.857Z,11.19
2023-04-20T21:36:09.891Z,11.70
2023-04-20T21:38:38.424Z,11.93
2023-04-20T21:41:08.294Z,11.88
2023-04-20T21:43:36.875Z,11.68
2023-04-20T21:46:05.541Z,11.98
2023-04-20T21:48:34.191Z,12.41
2023-04-20T21:51:02.709Z,12.39
2023-04-20T21:53:31.323Z,12.66
2023-04-20T21:55:59.839Z,12.68
2023-04-20T21:58:29.721Z,13.02
2023-04-20T22:00:58.315Z,12.54
2023-04-20T22:03:27.317Z,12.72
2023-04-20T22:05:56.272Z,13.05
2023-04-20T22:08:25.373Z,13.09
2023-04-20T22:10:53.986Z,12.69
2023-04-20T22:13:22.533Z,12.66
2023-04-20T22:15:52.785Z,12.85
2023-04-20T22:18:22.189Z,12.65
2023-04-20T22:20:52.113Z,12.94
2023-04-20T22:23:20.894Z,12.97
2023-04-20T22:25:49.440Z,12.84
2023-04-20T22:28:18.094Z,12.52
2023-04-20T22:30:46.618Z,12.57
2023-04-20T22:33:16.604Z,12.76
2023-04-20T22:35:45.171Z,12.34
2023-04-20T22:38:13.695Z,12.42
2023-04-20T22:40:42.214Z,12.48
2023-04-20T22:43:11.350Z,12.68
2023-04-20T22:45:39.914Z,12.52
2023-04-20T22:48:09.268Z,12.24
2023-04-20T22:50:39.377Z,12.25
2023-04-20T22:53:07.910Z,12.46
2023-04-20T22:55:36.438Z,12.84
2023-04-20T22:58:04.943Z,12.65
2023-04-20T23:00:33.504Z,12.32
2023-04-20T23:03:02.143Z,12.20
2023-04-20T23:05:30.777Z,12.49
2023-04-20T23:08:01.189Z,12.83
2023-04-20T23:10:29.695Z,12.20
2023-04-20T23:12:58.167Z,12.18
2023-04-20T23:15:26.694Z,12.18
2023-04-20T23:17:57.229Z,12.05
2023-04-20T23:20:26.509Z,12.47
2023-04-20T23:22:55.046Z,12.70
2023-04-20T23:25:24.951Z,12.66
2023-04-20T23:27:53.447Z,12.80
2023-04-20T23:30:22.058Z,12.91
2023-04-20T23:32:50.602Z,12.80
2023-04-20T23:35:19.546Z,12.93
2023-04-20T23:37:48.047Z,12.96
2023-04-20T23:40:16.611Z,13.01
2023-04-20T23:42:46.512Z,12.66
2023-04-20T23:45:15.041Z,11.82
2023-04-20T23:47:43.579Z,12.34
2023-04-20T23:50:12.397Z,12.60
2023-04-20T23:52:41.304Z,12.47
2023-04-20T23:55:11.144Z,11.86
2023-04-20T23:57:39.914Z,11.18
